sensor_id;sensor_type;location;lat;lon;timestamp;pressure;altitude;pressure_sealevel;temperature;humidity
25084;BME280;13075;55.682;37.564;2022-12-18T00:02:05;99182.94;;;-1.01;100.00
25084;BME280;13075;55.682;37.564;2022-12-18T00:04:31;99171.88;;;-0.76;100.00
25084;BME280;13075;55.682;37.564;2022-12-18T00:06:56;99178.25;;;-0.50;100.00
25084;BME280;13075;55.682;37.564;2022-12-18T00:09:22;99168.97;;;-0.64;100.00
25084;BME280;13075;55.682;37.564;2022-12-18T00:11:48;99172.28;;;-0.42;100.00
25084;BME280;13075;55.682;37.564;2022-12-18T00:14:14;99161.75;;;-0.33;100.00
25084;BME280;13075;55.682;37.564;2022-12-18T00:16:44;99143.66;;;-0.26;100.00
25084;BME280;13075;55.682;37.564;2022-12-18T00:19:10;99154.16;;;-0.36;100.00
25084;BME280;13075;55.682;37.564;2022-12-18T00:21:35;99139.31;;;-0.18;100.00
25084;BME280;13075;55.682;37.564;2022-12-18T00:24:01;99141.91;;;0.02;100.00
25084;BME280;13075;55.682;37.564;2022-12-18T00:26:32;99131.16;;;-0.15;100.00
25084;BME280;13075;55.682;37.564;2022-12-18T00:29:03;99147.41;;;0.08;100.00
25084;BME280;13075;55.682;37.564;2022-12-18T00:31:29;99122.69;;;-0.65;100.00
25084;BME280;13075;55.682;37.564;2022-12-18T00:33:56;99130.91;;;-0.31;100.00
25084;BME280;13075;55.682;37.564;2022-12-18T00:36:27;99138.03;;;-0.60;100.00
25084;BME280;13075;55.682;37.564;2022-12-18T00:38:54;99119.38;;;-0.57;100.00
25084;BME280;13075;55.682;37.564;2022-12-18T00:41:21;99115.31;;;-0.32;100.00
25084;BME280;13075;55.682;37.564;2022-12-18T00:44:07;99127.69;;;-0.06;100.00
25084;BME280;13075;55.682;37.564;2022-12-18T00:46:33;99118.59;;;-0.30;100.00
25084;BME280;13075;55.682;37.564;2022-12-18T00:48:59;99112.53;;;-0.21;100.00
25084;BME280;13075;55.682;37.564;2022-12-18T00:51:25;99104.66;;;0.06;100.00
25084;BME280;13075;55.682;37.564;2022-12-18T00:53:52;99099.88;;;-0.08;100.00
25084;BME280;13075;55.682;37.564;2022-12-18T00:56:17;99096.06;;;0.14;100.00
25084;BME280;13075;55.682;37.564;2022-12-18T00:58:43;99077.84;;;0.03;100.00
25084;BME280;13075;55.682;37.564;2022-12-18T01:01:09;99070.97;;;0.19;100.00
25084;BME280;13075;55.682;37.564;2022-12-18T01:03:35;99069.47;;;0.17;100.00
25084;BME280;13075;55.682;37.564;2022-12-18T01:06:09;99063.56;;;0.32;100.00
25084;BME280;13075;55.682;37.564;2022-12-18T01:08:35;99062.28;;;0.36;100.00
25084;BME280;13075;55.682;37.564;2022-12-18T01:11:07;99048.47;;;0.07;100.00
25084;BME280;13075;55.682;37.564;2022-12-18T01:13:34;99050.13;;;0.08;100.00
25084;BME280;13075;55.682;37.564;2022-12-18T01:15:59;99052.72;;;0.18;100.00
25084;BME280;13075;55.682;37.564;2022-12-18T01:18:25;99045.81;;;-0.11;100.00
25084;BME280;13075;55.682;37.564;2022-12-18T01:20:50;99041.91;;;-0.07;100.00
25084;BME280;13075;55.682;37.564;2022-12-18T01:23:16;99033.66;;;-0.21;100.00
25084;BME280;13075;55.682;37.564;2022-12-18T01:25:41;99043.91;;;-0.18;100.00
25084;BME280;13075;55.682;37.564;2022-12-18T01:28:09;99042.72;;;-0.06;100.00
25084;BME280;13075;55.682;37.564;2022-12-18T01:30:34;99053.63;;;-0.01;100.00
25084;BME280;13075;55.682;37.564;2022-12-18T01:33:00;99063.81;;;0.12;100.00
25084;BME280;13075;55.682;37.564;2022-12-18T01:35:26;99053.06;;;0.32;100.00
25084;BME280;13075;55.682;37.564;2022-12-18T01:37:55;99057.81;;;-0.08;100.00
25084;BME280;13075;55.682;37.564;2022-12-18T01:40:21;99029.81;;;-0.27;100.00
25084;BME280;13075;55.682;37.564;2022-12-18T01:42:52;99042.34;;;-0.11;100.00
25084;BME280;13075;55.682;37.564;2022-12-18T01:45:24;99041.44;;;-0.29;100.00
25084;BME280;13075;55.682;37.564;2022-12-18T01:47:55;99036.19;;;-0.29;100.00
25084;BME280;13075;55.682;37.564;2022-12-18T01:50:34;99042.84;;;-0.08;100.00
25084;BME280;13075;55.682;37.564;2022-12-18T01:53:11;99039.66;;;-0.02;100.00
25084;BME280;13075;55.682;37.564;2022-12-18T01:55:46;99048.59;;;0.06;100.00
25084;BME280;13075;55.682;37.564;2022-12-18T01:58:13;99049.28;;;-0.20;100.00
25084;BME280;13075;55.682;37.564;2022-12-18T02:00:38;99036.63;;;-0.07;100.00
25084;BME280;13075;55.682;37.564;2022-12-18T02:03:04;99043.31;;;-0.12;100.00
25084;BME280;13075;55.682;37.564;2022-12-18T02:05:47;99041.84;;;0.03;100.00
25084;BME280;13075;55.682;37.564;2022-12-18T02:08:24;99034.78;;;0.04;100.00
25084;BME280;13075;55.682;37.564;2022-12-18T02:11:06;99027.31;;;-0.28;100.00
25084;BME280;13075;55.682;37.564;2022-12-18T02:16:39;99036.47;;;-0.05;100.00
25084;BME280;13075;55.682;37.564;2022-12-18T02:22:01;99039.75;;;0.07;100.00
25084;BME280;13075;55.682;37.564;2022-12-18T02:27:15;99058.75;;;0.28;100.00
25084;BME280;13075;55.682;37.564;2022-12-18T02:29:48;99044.97;;;0.43;100.00
25084;BME280;13075;55.682;37.564;2022-12-18T02:32:22;99046.22;;;0.39;100.00
25084;BME280;13075;55.682;37.564;2022-12-18T02:34:52;99047.22;;;0.38;100.00
25084;BME280;13075;55.682;37.564;2022-12-18T02:37:22;99041.31;;;0.27;100.00
25084;BME280;13075;55.682;37.564;2022-12-18T02:39:49;99034.50;;;0.07;100.00
25084;BME280;13075;55.682;37.564;2022-12-18T02:42:18;99040.84;;;0.31;100.00
25084;BME280;13075;55.682;37.564;2022-12-18T02:44:46;99041.19;;;0.28;100.00
25084;BME280;13075;55.682;37.564;2022-12-18T02:47:18;99045.31;;;0.31;100.00
25084;BME280;13075;55.682;37.564;2022-12-18T02:52:39;99063.34;;;0.26;100.00
25084;BME280;13075;55.682;37.564;2022-12-18T02:57:59;99054.06;;;0.22;100.00
25084;BME280;13075;55.682;37.564;2022-12-18T03:00:40;99041.13;;;0.38;100.00
25084;BME280;13075;55.682;37.564;2022-12-18T03:05:57;99024.06;;;-0.13;100.00
25084;BME280;13075;55.682;37.564;2022-12-18T03:08:27;99038.19;;;0.14;100.00
25084;BME280;13075;55.682;37.564;2022-12-18T03:11:00;99037.66;;;0.37;100.00
25084;BME280;13075;55.682;37.564;2022-12-18T03:13:33;99050.81;;;0.55;100.00
25084;BME280;13075;55.682;37.564;2022-12-18T03:16:03;99041.22;;;0.19;100.00
25084;BME280;13075;55.682;37.564;2022-12-18T03:18:36;99055.78;;;0.40;100.00
25084;BME280;13075;55.682;37.564;2022-12-18T03:21:05;99037.34;;;0.23;100.00
25084;BME280;13075;55.682;37.564;2022-12-18T03:23:39;99042.25;;;0.35;100.00
25084;BME280;13075;55.682;37.564;2022-12-18T03:26:10;99064.44;;;0.50;100.00
25084;BME280;13075;55.682;37.564;2022-12-18T03:28:41;99049.47;;;0.24;100.00
25084;BME280;13075;55.682;37.564;2022-12-18T03:31:10;99045.03;;;0.07;100.00
25084;BME280;13075;55.682;37.564;2022-12-18T03:33:46;99047.13;;;0.30;100.00
25084;BME280;13075;55.682;37.564;2022-12-18T03:36:14;99049.25;;;0.17;100.00
25084;BME280;13075;55.682;37.564;2022-12-18T03:38:40;99051.63;;;0.38;100.00
25084;BME280;13075;55.682;37.564;2022-12-18T03:41:18;99049.59;;;0.32;100.00
25084;BME280;13075;55.682;37.564;2022-12-18T03:47:14;99033.97;;;0.48;100.00
25084;BME280;13075;55.682;37.564;2022-12-18T03:53:01;99042.00;;;0.02;100.00
25084;BME280;13075;55.682;37.564;2022-12-18T03:55:33;99053.97;;;0.14;100.00
25084;BME280;13075;55.682;37.564;2022-12-18T03:58:04;99057.56;;;0.40;100.00
25084;BME280;13075;55.682;37.564;2022-12-18T04:00:43;99060.94;;;0.32;100.00
25084;BME280;13075;55.682;37.564;2022-12-18T04:03:11;99053.38;;;0.47;100.00
25084;BME280;13075;55.682;37.564;2022-12-18T04:05:45;99043.97;;;0.62;100.00
25084;BME280;13075;55.682;37.564;2022-12-18T04:08:14;99041.25;;;0.36;100.00
25084;BME280;13075;55.682;37.564;2022-12-18T04:10:44;99047.47;;;0.18;100.00
25084;BME280;13075;55.682;37.564;2022-12-18T04:13:11;99054.16;;;0.30;100.00
25084;BME280;13075;55.682;37.564;2022-12-18T04:15:37;99071.63;;;0.31;100.00
25084;BME280;13075;55.682;37.564;2022-12-18T04:18:07;99095.78;;;0.44;100.00
25084;BME280;13075;55.682;37.564;2022-12-18T04:20:39;99095.03;;;0.51;100.00
25084;BME280;13075;55.682;37.564;2022-12-18T04:23:04;99093.38;;;0.50;100.00
25084;BME280;13075;55.682;37.564;2022-12-18T04:25:31;99094.66;;;0.46;100.00
25084;BME280;13075;55.682;37.564;2022-12-18T04:28:05;99102.75;;;0.35;100.00
25084;BME280;13075;55.682;37.564;2022-12-18T04:30:32;99107.91;;;0.27;100.00
25084;BME280;13075;55.682;37.564;2022-12-18T04:32:58;99107.91;;;0.27;100.00
25084;BME280;13075;55.682;37.564;2022-12-18T04:35:23;99119.84;;;0.49;100.00
25084;BME280;13075;55.682;37.564;2022-12-18T04:37:49;99124.13;;;0.23;100.00
25084;BME280;13075;55.682;37.564;2022-12-18T04:40:15;99134.69;;;0.40;100.00
25084;BME280;13075;55.682;37.564;2022-12-18T04:42:44;99117.09;;;0.14;100.00
25084;BME280;13075;55.682;37.564;2022-12-18T04:45:10;99137.91;;;0.34;100.00
25084;BME280;13075;55.682;37.564;2022-12-18T04:47:36;99137.78;;;0.26;100.00
25084;BME280;13075;55.682;37.564;2022-12-18T04:50:02;99151.44;;;0.39;100.00
25084;BME280;13075;55.682;37.564;2022-12-18T04:52:27;99131.13;;;0.32;100.00
25084;BME280;13075;55.682;37.564;2022-12-18T04:54:53;99147.97;;;0.48;100.00
25084;BME280;13075;55.682;37.564;2022-12-18T04:57:19;99146.34;;;0.65;100.00
25084;BME280;13075;55.682;37.564;2022-12-18T04:59:44;99146.38;;;0.55;100.00
25084;BME280;13075;55.682;37.564;2022-12-18T05:02:10;99135.88;;;0.28;100.00
25084;BME280;13075;55.682;37.564;2022-12-18T05:04:36;99138.91;;;0.33;100.00
25084;BME280;13075;55.682;37.564;2022-12-18T05:07:01;99130.69;;;0.36;100.00
25084;BME280;13075;55.682;37.564;2022-12-18T05:09:27;99143.88;;;0.27;100.00
25084;BME280;13075;55.682;37.564;2022-12-18T05:11:53;99152.13;;;0.41;100.00
25084;BME280;13075;55.682;37.564;2022-12-18T05:14:19;99159.31;;;0.49;100.00
25084;BME280;13075;55.682;37.564;2022-12-18T05:16:44;99144.50;;;0.11;100.00
25084;BME280;13075;55.682;37.564;2022-12-18T05:19:10;99144.22;;;0.41;100.00
25084;BME280;13075;55.682;37.564;2022-12-18T05:21:35;99147.63;;;0.24;100.00
25084;BME280;13075;55.682;37.564;2022-12-18T05:24:01;99159.72;;;0.17;100.00
25084;BME280;13075;55.682;37.564;2022-12-18T05:26:27;99175.97;;;0.40;100.00
25084;BME280;13075;55.682;37.564;2022-12-18T05:28:52;99170.31;;;0.35;100.00
25084;BME280;13075;55.682;37.564;2022-12-18T05:31:18;99187.13;;;0.51;100.00
25084;BME280;13075;55.682;37.564;2022-12-18T05:33:43;99183.22;;;0.55;100.00
25084;BME280;13075;55.682;37.564;2022-12-18T05:36:09;99193.44;;;0.31;100.00
25084;BME280;13075;55.682;37.564;2022-12-18T05:38:37;99195.88;;;0.42;100.00
25084;BME280;13075;55.682;37.564;2022-12-18T05:41:03;99193.81;;;0.46;100.00
25084;BME280;13075;55.682;37.564;2022-12-18T05:43:28;99197.69;;;0.42;100.00
25084;BME280;13075;55.682;37.564;2022-12-18T05:45:55;99204.09;;;0.30;100.00
25084;BME280;13075;55.682;37.564;2022-12-18T05:48:22;99198.44;;;0.61;100.00
25084;BME280;13075;55.682;37.564;2022-12-18T05:50:49;99218.09;;;0.67;100.00
25084;BME280;13075;55.682;37.564;2022-12-18T05:53:17;99215.09;;;0.52;100.00
25084;BME280;13075;55.682;37.564;2022-12-18T05:55:45;99222.75;;;0.46;100.00
25084;BME280;13075;55.682;37.564;2022-12-18T05:58:11;99220.34;;;0.52;100.00
25084;BME280;13075;55.682;37.564;2022-12-18T06:00:40;99226.75;;;0.50;100.00
25084;BME280;13075;55.682;37.564;2022-12-18T06:03:07;99213.81;;;0.66;100.00
25084;BME280;13075;55.682;37.564;2022-12-18T06:05:38;99226.84;;;0.85;100.00
25084;BME280;13075;55.682;37.564;2022-12-18T06:08:04;99236.81;;;0.91;100.00
25084;BME280;13075;55.682;37.564;2022-12-18T06:10:30;99238.78;;;0.89;100.00
25084;BME280;13075;55.682;37.564;2022-12-18T06:12:56;99249.91;;;1.01;100.00
25084;BME280;13075;55.682;37.564;2022-12-18T06:15:22;99255.44;;;1.07;100.00
25084;BME280;13075;55.682;37.564;2022-12-18T06:17:47;99248.00;;;1.03;100.00
25084;BME280;13075;55.682;37.564;2022-12-18T06:20:13;99258.31;;;0.87;100.00
25084;BME280;13075;55.682;37.564;2022-12-18T06:22:38;99239.94;;;0.77;100.00
25084;BME280;13075;55.682;37.564;2022-12-18T06:25:04;99256.41;;;0.79;100.00
25084;BME280;13075;55.682;37.564;2022-12-18T06:27:31;99258.44;;;0.85;100.00
25084;BME280;13075;55.682;37.564;2022-12-18T06:29:59;99262.63;;;0.78;100.00
25084;BME280;13075;55.682;37.564;2022-12-18T06:32:25;99260.78;;;0.61;100.00
25084;BME280;13075;55.682;37.564;2022-12-18T06:34:51;99275.25;;;0.84;100.00
25084;BME280;13075;55.682;37.564;2022-12-18T06:37:16;99261.25;;;0.84;100.00
25084;BME280;13075;55.682;37.564;2022-12-18T06:39:42;99277.09;;;1.01;100.00
25084;BME280;13075;55.682;37.564;2022-12-18T06:42:07;99292.38;;;0.88;100.00
25084;BME280;13075;55.682;37.564;2022-12-18T06:44:33;99300.56;;;0.85;100.00
25084;BME280;13075;55.682;37.564;2022-12-18T06:46:58;99306.47;;;0.70;100.00
25084;BME280;13075;55.682;37.564;2022-12-18T06:49:24;99308.16;;;0.61;100.00
25084;BME280;13075;55.682;37.564;2022-12-18T06:51:50;99306.06;;;0.65;100.00
25084;BME280;13075;55.682;37.564;2022-12-18T06:54:16;99321.34;;;0.98;100.00
25084;BME280;13075;55.682;37.564;2022-12-18T06:56:41;99332.06;;;1.14;100.00
25084;BME280;13075;55.682;37.564;2022-12-18T06:59:07;99327.63;;;1.14;100.00
25084;BME280;13075;55.682;37.564;2022-12-18T07:01:32;99328.91;;;1.10;100.00
25084;BME280;13075;55.682;37.564;2022-12-18T07:03:58;99318.38;;;1.01;100.00
25084;BME280;13075;55.682;37.564;2022-12-18T07:06:25;99333.22;;;1.02;100.00
25084;BME280;13075;55.682;37.564;2022-12-18T07:08:51;99324.19;;;0.68;100.00
25084;BME280;13075;55.682;37.564;2022-12-18T07:11:18;99334.00;;;0.85;100.00
25084;BME280;13075;55.682;37.564;2022-12-18T07:13:44;99326.09;;;0.75;100.00
25084;BME280;13075;55.682;37.564;2022-12-18T07:16:13;99330.97;;;0.80;100.00
25084;BME280;13075;55.682;37.564;2022-12-18T07:18:39;99324.88;;;0.79;100.00
25084;BME280;13075;55.682;37.564;2022-12-18T07:21:06;99349.88;;;1.02;100.00
25084;BME280;13075;55.682;37.564;2022-12-18T07:23:33;99357.31;;;1.07;100.00
25084;BME280;13075;55.682;37.564;2022-12-18T07:26:11;99360.84;;;0.88;100.00
25084;BME280;13075;55.682;37.564;2022-12-18T07:28:38;99372.16;;;1.08;100.00
25084;BME280;13075;55.682;37.564;2022-12-18T07:31:09;99367.22;;;0.86;100.00
25084;BME280;13075;55.682;37.564;2022-12-18T07:33:35;99369.72;;;0.97;100.00
25084;BME280;13075;55.682;37.564;2022-12-18T07:36:02;99374.97;;;0.97;100.00
25084;BME280;13075;55.682;37.564;2022-12-18T07:38:29;99348.00;;;4.06;100.00
25084;BME280;13075;55.682;37.564;2022-12-18T07:40:59;99293.50;;;4.76;100.00
25084;BME280;13075;55.682;37.564;2022-12-18T07:43:25;99294.34;;;5.62;100.00
25084;BME280;13075;55.682;37.564;2022-12-18T07:45:50;99277.75;;;5.91;100.00
25084;BME280;13075;55.682;37.564;2022-12-18T07:48:16;99265.69;;;6.78;100.00
25084;BME280;13075;55.682;37.564;2022-12-18T07:50:42;99266.72;;;3.50;100.00
25084;BME280;13075;55.682;37.564;2022-12-18T07:53:07;99301.22;;;1.51;100.00
25084;BME280;13075;55.682;37.564;2022-12-18T07:55:33;99357.44;;;1.15;100.00
25084;BME280;13075;55.682;37.564;2022-12-18T07:58:02;99370.75;;;0.67;100.00
25084;BME280;13075;55.682;37.564;2022-12-18T08:00:29;99379.56;;;0.85;100.00
25084;BME280;13075;55.682;37.564;2022-12-18T08:02:54;99387.03;;;0.99;100.00
25084;BME280;13075;55.682;37.564;2022-12-18T08:05:20;99387.69;;;0.17;100.00
25084;BME280;13075;55.682;37.564;2022-12-18T08:07:46;99407.91;;;0.64;100.00
25084;BME280;13075;55.682;37.564;2022-12-18T08:10:12;99413.38;;;0.90;100.00
25084;BME280;13075;55.682;37.564;2022-12-18T08:12:37;99422.53;;;0.86;100.00
25084;BME280;13075;55.682;37.564;2022-12-18T08:15:03;99427.22;;;1.01;100.00
25084;BME280;13075;55.682;37.564;2022-12-18T08:17:29;99444.94;;;1.18;100.00
25084;BME280;13075;55.682;37.564;2022-12-18T08:19:55;99455.53;;;1.36;100.00
25084;BME280;13075;55.682;37.564;2022-12-18T08:22:20;99451.72;;;1.21;100.00
25084;BME280;13075;55.682;37.564;2022-12-18T08:24:46;99446.94;;;0.78;100.00
25084;BME280;13075;55.682;37.564;2022-12-18T08:27:12;99465.19;;;1.08;100.00
25084;BME280;13075;55.682;37.564;2022-12-18T08:29:37;99465.03;;;1.10;100.00
25084;BME280;13075;55.682;37.564;2022-12-18T08:32:03;99456.03;;;1.12;100.00
25084;BME280;13075;55.682;37.564;2022-12-18T08:34:29;99461.81;;;1.25;100.00
25084;BME280;13075;55.682;37.564;2022-12-18T08:36:55;99454.53;;;0.91;100.00
25084;BME280;13075;55.682;37.564;2022-12-18T08:39:20;99456.63;;;0.68;100.00
25084;BME280;13075;55.682;37.564;2022-12-18T08:41:46;99469.09;;;0.95;100.00
25084;BME280;13075;55.682;37.564;2022-12-18T08:44:31;99472.53;;;1.05;100.00
25084;BME280;13075;55.682;37.564;2022-12-18T08:47:03;99467.97;;;0.97;100.00
25084;BME280;13075;55.682;37.564;2022-12-18T08:49:29;99473.09;;;0.99;100.00
25084;BME280;13075;55.682;37.564;2022-12-18T08:51:55;99468.72;;;1.26;100.00
25084;BME280;13075;55.682;37.564;2022-12-18T08:54:23;99473.75;;;1.20;100.00
25084;BME280;13075;55.682;37.564;2022-12-18T08:56:48;99485.84;;;1.50;100.00
25084;BME280;13075;55.682;37.564;2022-12-18T08:59:18;99460.13;;;1.34;100.00
25084;BME280;13075;55.682;37.564;2022-12-18T09:01:44;99466.41;;;1.14;100.00
25084;BME280;13075;55.682;37.564;2022-12-18T09:04:10;99469.63;;;0.98;100.00
25084;BME280;13075;55.682;37.564;2022-12-18T09:06:36;99471.25;;;1.28;100.00
25084;BME280;13075;55.682;37.564;2022-12-18T09:09:02;99460.66;;;0.62;100.00
25084;BME280;13075;55.682;37.564;2022-12-18T09:11:29;99484.72;;;1.06;100.00
25084;BME280;13075;55.682;37.564;2022-12-18T09:13:55;99486.44;;;0.69;100.00
25084;BME280;13075;55.682;37.564;2022-12-18T09:16:23;99496.66;;;0.91;100.00
25084;BME280;13075;55.682;37.564;2022-12-18T09:18:49;99507.56;;;1.34;100.00
25084;BME280;13075;55.682;37.564;2022-12-18T09:21:17;99514.06;;;1.40;100.00
25084;BME280;13075;55.682;37.564;2022-12-18T09:23:43;99525.72;;;1.47;100.00
25084;BME280;13075;55.682;37.564;2022-12-18T09:26:10;99522.13;;;1.19;100.00
25084;BME280;13075;55.682;37.564;2022-12-18T09:28:35;99522.66;;;1.32;100.00
25084;BME280;13075;55.682;37.564;2022-12-18T09:31:06;99524.84;;;1.56;100.00
25084;BME280;13075;55.682;37.564;2022-12-18T09:33:36;99533.88;;;1.44;100.00
25084;BME280;13075;55.682;37.564;2022-12-18T09:36:04;99538.59;;;1.40;100.00
25084;BME280;13075;55.682;37.564;2022-12-18T09:38:30;99532.53;;;1.30;100.00
25084;BME280;13075;55.682;37.564;2022-12-18T09:41:00;99551.75;;;1.50;100.00
25084;BME280;13075;55.682;37.564;2022-12-18T09:43:37;99554.78;;;1.64;100.00
25084;BME280;13075;55.682;37.564;2022-12-18T09:46:10;99548.09;;;0.95;100.00
25084;BME280;13075;55.682;37.564;2022-12-18T09:48:42;99552.94;;;1.28;100.00
25084;BME280;13075;55.682;37.564;2022-12-18T09:51:24;99543.47;;;1.35;100.00
25084;BME280;13075;55.682;37.564;2022-12-18T09:54:00;99551.47;;;1.53;100.00
25084;BME280;13075;55.682;37.564;2022-12-18T09:56:26;99546.06;;;1.54;100.00
25084;BME280;13075;55.682;37.564;2022-12-18T09:58:59;99556.22;;;1.40;100.00
25084;BME280;13075;55.682;37.564;2022-12-18T10:01:27;99556.03;;;1.60;100.00
25084;BME280;13075;55.682;37.564;2022-12-18T10:03:53;99570.59;;;1.64;100.00
25084;BME280;13075;55.682;37.564;2022-12-18T10:19:56;99457.81;;;5.88;100.00
25084;BME280;13075;55.682;37.564;2022-12-18T10:25:33;99436.28;;;7.04;100.00
25084;BME280;13075;55.682;37.564;2022-12-18T10:28:10;99433.53;;;6.75;100.00
25084;BME280;13075;55.682;37.564;2022-12-18T10:30:38;99443.91;;;6.84;100.00
25084;BME280;13075;55.682;37.564;2022-12-18T10:33:04;99440.53;;;6.76;100.00
25084;BME280;13075;55.682;37.564;2022-12-18T10:35:30;99436.31;;;6.36;100.00
25084;BME280;13075;55.682;37.564;2022-12-18T10:43:15;99457.38;;;7.06;100.00
25084;BME280;13075;55.682;37.564;2022-12-18T10:46:01;99464.88;;;7.25;100.00
25084;BME280;13075;55.682;37.564;2022-12-18T10:48:28;99480.34;;;6.53;100.00
25084;BME280;13075;55.682;37.564;2022-12-18T10:50:55;99492.97;;;5.90;100.00
25084;BME280;13075;55.682;37.564;2022-12-18T10:53:27;99508.72;;;6.30;100.00
25084;BME280;13075;55.682;37.564;2022-12-18T10:55:55;99513.84;;;6.40;100.00
25084;BME280;13075;55.682;37.564;2022-12-18T11:03:59;99516.63;;;6.46;100.00
25084;BME280;13075;55.682;37.564;2022-12-18T11:06:25;99573.81;;;1.58;100.00
25084;BME280;13075;55.682;37.564;2022-12-18T11:11:32;99651.13;;;-0.09;100.00
25084;BME280;13075;55.682;37.564;2022-12-18T11:14:01;99665.69;;;-0.25;100.00
25084;BME280;13075;55.682;37.564;2022-12-18T11:16:29;99667.16;;;-0.53;100.00
25084;BME280;13075;55.682;37.564;2022-12-18T11:19:19;99671.53;;;-0.42;100.00
25084;BME280;13075;55.682;37.564;2022-12-18T11:21:47;99672.28;;;-0.51;100.00
25084;BME280;13075;55.682;37.564;2022-12-18T11:24:20;99685.81;;;-0.35;100.00
25084;BME280;13075;55.682;37.564;2022-12-18T11:26:48;99682.63;;;-0.39;100.00
25084;BME280;13075;55.682;37.564;2022-12-18T11:29:31;99681.34;;;-0.24;100.00
25084;BME280;13075;55.682;37.564;2022-12-18T11:32:34;99693.75;;;-0.05;100.00
25084;BME280;13075;55.682;37.564;2022-12-18T11:35:08;99706.91;;;-0.05;100.00
25084;BME280;13075;55.682;37.564;2022-12-18T11:37:39;99706.81;;;-0.24;100.00
25084;BME280;13075;55.682;37.564;2022-12-18T11:42:45;99706.75;;;-0.34;100.00
25084;BME280;13075;55.682;37.564;2022-12-18T11:47:50;99712.31;;;-0.27;100.00
25084;BME280;13075;55.682;37.564;2022-12-18T11:50:20;99715.63;;;-0.25;100.00
25084;BME280;13075;55.682;37.564;2022-12-18T11:52:48;99722.56;;;-0.24;100.00
25084;BME280;13075;55.682;37.564;2022-12-18T11:55:16;99737.25;;;-0.22;100.00
25084;BME280;13075;55.682;37.564;2022-12-18T12:00:27;99743.63;;;-0.35;100.00
25084;BME280;13075;55.682;37.564;2022-12-18T12:35:37;99780.84;;;1.81;100.00
25084;BME280;13075;55.682;37.564;2022-12-18T12:38:20;99783.88;;;1.58;100.00
25084;BME280;13075;55.682;37.564;2022-12-18T12:40:59;99783.88;;;1.58;100.00
25084;BME280;13075;55.682;37.564;2022-12-18T12:43:38;99785.97;;;1.73;100.00
25084;BME280;13075;55.682;37.564;2022-12-18T12:46:09;99790.13;;;1.57;100.00
25084;BME280;13075;55.682;37.564;2022-12-18T12:51:20;99800.56;;;1.87;100.00
25084;BME280;13075;55.682;37.564;2022-12-18T12:53:47;99806.22;;;1.63;100.00
25084;BME280;13075;55.682;37.564;2022-12-18T12:56:15;99813.06;;;1.75;100.00
25084;BME280;13075;55.682;37.564;2022-12-18T12:58:49;99815.41;;;1.78;100.00
25084;BME280;13075;55.682;37.564;2022-12-18T13:04:11;99825.69;;;1.81;100.00
25084;BME280;13075;55.682;37.564;2022-12-18T13:06:53;99812.22;;;1.84;100.00
25084;BME280;13075;55.682;37.564;2022-12-18T13:09:22;99824.44;;;2.05;100.00
25084;BME280;13075;55.682;37.564;2022-12-18T13:11:47;99831.69;;;2.22;100.00
25084;BME280;13075;55.682;37.564;2022-12-18T13:14:40;99841.13;;;2.24;100.00
25084;BME280;13075;55.682;37.564;2022-12-18T13:19:51;99840.25;;;2.14;100.00
25084;BME280;13075;55.682;37.564;2022-12-18T13:22:29;99833.19;;;2.34;100.00
25084;BME280;13075;55.682;37.564;2022-12-18T13:24:55;99853.44;;;0.66;100.00
25084;BME280;13075;55.682;37.564;2022-12-18T13:28:07;99877.97;;;-0.18;100.00
25084;BME280;13075;55.682;37.564;2022-12-18T13:48:25;99963.09;;;-0.30;100.00
25084;BME280;13075;55.682;37.564;2022-12-18T13:50:56;99954.13;;;-0.16;100.00
25084;BME280;13075;55.682;37.564;2022-12-18T13:53:27;99972.88;;;-0.10;100.00
25084;BME280;13075;55.682;37.564;2022-12-18T13:55:54;99968.69;;;-0.12;100.00
25084;BME280;13075;55.682;37.564;2022-12-18T13:58:20;99984.72;;;-0.37;100.00
25084;BME280;13075;55.682;37.564;2022-12-18T14:00:46;99994.28;;;-0.25;100.00
25084;BME280;13075;55.682;37.564;2022-12-18T14:03:27;99975.41;;;-0.19;100.00
25084;BME280;13075;55.682;37.564;2022-12-18T14:06:00;99998.44;;;-0.23;100.00
25084;BME280;13075;55.682;37.564;2022-12-18T14:08:32;100007.66;;;-0.17;100.00
25084;BME280;13075;55.682;37.564;2022-12-18T14:10:58;100006.47;;;-0.24;100.00
25084;BME280;13075;55.682;37.564;2022-12-18T14:13:29;100012.91;;;-0.17;100.00
25084;BME280;13075;55.682;37.564;2022-12-18T14:15:56;100006.56;;;-0.15;100.00
25084;BME280;13075;55.682;37.564;2022-12-18T14:18:44;100016.72;;;-0.10;100.00
25084;BME280;13075;55.682;37.564;2022-12-18T14:21:27;100032.75;;;-0.35;100.00
25084;BME280;13075;55.682;37.564;2022-12-18T14:24:13;100024.41;;;-0.18;100.00
25084;BME280;13075;55.682;37.564;2022-12-18T14:26:40;100036.81;;;-0.42;100.00
25084;BME280;13075;55.682;37.564;2022-12-18T14:29:22;100044.69;;;-0.09;100.00
25084;BME280;13075;55.682;37.564;2022-12-18T14:32:11;100041.81;;;-0.28;100.00
25084;BME280;13075;55.682;37.564;2022-12-18T14:34:39;100037.44;;;-0.39;100.00
25084;BME280;13075;55.682;37.564;2022-12-18T14:37:07;100048.28;;;-0.32;100.00
25084;BME280;13075;55.682;37.564;2022-12-18T14:39:34;100060.44;;;-0.53;100.00
25084;BME280;13075;55.682;37.564;2022-12-18T14:42:00;100065.19;;;-0.70;100.00
25084;BME280;13075;55.682;37.564;2022-12-18T14:44:25;100070.69;;;-0.62;100.00
25084;BME280;13075;55.682;37.564;2022-12-18T14:46:51;100067.22;;;-0.73;100.00
25084;BME280;13075;55.682;37.564;2022-12-18T14:49:30;100075.84;;;-0.60;100.00
25084;BME280;13075;55.682;37.564;2022-12-18T14:51:59;100080.56;;;-0.41;100.00
25084;BME280;13075;55.682;37.564;2022-12-18T14:54:25;100086.97;;;-0.45;100.00
25084;BME280;13075;55.682;37.564;2022-12-18T14:57:12;100095.25;;;-0.39;100.00
25084;BME280;13075;55.682;37.564;2022-12-18T14:59:43;100093.81;;;-0.32;100.00